Time;durP1;ratioP1;P1;durP2;ratioP2;P2;SDS_P1;SDS_P2;PMS_P1;PMS_P2;Temp;Humidity;BMP_temperature;BMP_pressure;BME280_temperature;BME280_humidity;BME280_pressure;Samples;Min_cycle;Max_cycle;Signal;HPM_P1;HPM_P2
2022/01/27 00:08:14;;;;;;;;;72.75;56.75;;;;;-3.85;84.42;101546.31;5150378;27;8932;-70
2022/01/27 00:11:16;;;;;;;;;72.75;59.50;;;;;-3.89;84.71;101545.09;5152324;27;8960;-71
2022/01/27 00:14:13;;;;;;;;;72.50;56.50;;;;;-3.97;84.91;101547.00;5156595;27;8840;-70
2022/01/27 00:17:13;;;;;;;;;60.00;51.50;;;;;-3.88;84.92;101547.59;5156525;27;8825;-70
2022/01/27 00:20:10;;;;;;;;;60.50;50.25;;;;;-3.95;84.36;101544.91;5141168;27;8805;-70
2022/01/27 00:23:06;;;;;;;;;78.75;61.00;;;;;-3.92;85.34;101543.63;5156350;27;8814;-70
2022/01/27 00:26:03;;;;;;;;;98.50;74.00;;;;;-3.87;85.30;101543.84;5155872;27;8821;-70
2022/01/27 00:28:58;;;;;;;;;84.75;66.75;;;;;-3.93;85.05;101541.97;5156033;27;8820;-70
2022/01/27 00:31:54;;;;;;;;;89.50;69.50;;;;;-4.04;84.92;101537.25;5135685;27;8818;-70
2022/01/27 00:34:49;;;;;;;;;76.00;63.25;;;;;-3.90;85.12;101544.28;5135396;27;8831;-70
2022/01/27 00:37:17;;;;;;;;;74.75;61.75;;;;;-3.97;84.78;101538.91;5136612;27;8823;-70
2022/01/27 00:40:13;;;;;;;;;99.25;70.50;;;;;-3.90;85.44;101548.84;5135868;27;8846;-70
2022/01/27 00:43:08;;;;;;;;;93.25;69.00;;;;;-3.97;85.18;101547.00;5135459;27;8938;-71
2022/01/27 00:46:10;;;;;;;;;87.50;66.75;;;;;-3.93;85.59;101541.97;5121895;27;8819;-71
2022/01/27 00:49:05;;;;;;;;;87.00;64.75;;;;;-3.92;85.02;101547.16;5135633;27;8858;-71
2022/01/27 00:52:03;;;;;;;;;75.50;64.00;;;;;-3.81;84.85;101548.38;5135382;27;8827;-71
2022/01/27 00:54:59;;;;;;;;;104.75;79.00;;;;;-3.86;84.20;101560.88;5135039;27;8846;-71
2022/01/27 01:00:59;;;;;;;;;97.25;69.75;;;;;-3.95;84.41;101563.00;5135143;27;8930;-71
2022/01/27 01:03:58;;;;;;;;;94.50;73.50;;;;;-3.86;84.84;101559.00;5134911;27;8899;-71
2022/01/27 01:06:54;;;;;;;;;95.75;72.75;;;;;-3.88;84.68;101560.28;5134832;27;8819;-71
2022/01/27 01:14:02;;;;;;;;;83.00;63.50;;;;;-3.87;84.57;101556.53;5134771;27;8930;-71
2022/01/27 01:16:45;;;;;;;;;103.25;78.50;;;;;-4.07;84.23;101553.88;5134340;27;8863;-70
2022/01/27 01:29:50;;;;;;;;;120.50;87.00;;;;;-4.08;84.73;101547.66;5142367;27;8842;-71
2022/01/27 01:32:47;;;;;;;;;101.75;80.50;;;;;-4.18;84.38;101554.56;5154969;27;8813;-70
2022/01/27 01:35:50;;;;;;;;;101.75;77.75;;;;;-4.17;84.50;101548.09;5140978;27;8822;-70
2022/01/27 01:38:46;;;;;;;;;103.25;79.75;;;;;-4.13;84.24;101549.34;5153437;27;8831;-70
2022/01/27 01:41:43;;;;;;;;;104.75;77.75;;;;;-4.29;84.29;101547.94;5137667;27;8879;-71
2022/01/27 01:44:39;;;;;;;;;102.00;78.25;;;;;-4.30;85.27;101555.19;5126224;27;8829;-70
2022/01/27 01:47:36;;;;;;;;;106.75;77.50;;;;;-4.25;85.25;101551.88;5129722;27;8937;-70
2022/01/27 01:50:32;;;;;;;;;100.25;76.25;;;;;-4.17;85.02;101553.50;5134878;27;8941;-70
2022/01/27 01:53:13;;;;;;;;;92.00;72.50;;;;;-4.18;85.02;101558.09;5135012;27;8870;-70
2022/01/27 01:56:09;;;;;;;;;99.00;78.25;;;;;-4.19;85.17;101556.44;5120200;27;8823;-70
2022/01/27 01:59:05;;;;;;;;;96.25;75.50;;;;;-4.18;85.37;101555.38;5127099;27;8829;-70
2022/01/27 02:02:01;;;;;;;;;103.25;77.00;;;;;-4.11;85.09;101555.38;5140481;27;8813;-70
2022/01/27 02:04:57;;;;;;;;;102.75;78.00;;;;;-4.01;85.36;101559.25;5153561;27;8925;-70
2022/01/27 02:08:45;;;;;;;;;89.50;70.00;;;;;-3.99;84.41;101554.50;5149250;27;8831;-70
2022/01/27 02:18:07;;;;;;;;;73.00;59.00;;;;;-4.08;83.82;101568.44;5140429;27;8877;-71
2022/01/27 02:21:02;;;;;;;;;59.00;51.25;;;;;-4.21;82.98;101559.34;5140946;27;8817;-70
2022/01/27 02:23:58;;;;;;;;;66.75;54.25;;;;;-4.26;82.89;101555.59;5140526;27;8939;-70
2022/01/27 02:26:54;;;;;;;;;63.50;52.50;;;;;-4.26;82.86;101564.53;5154188;27;8813;-70
2022/01/27 02:29:50;;;;;;;;;74.75;57.50;;;;;-4.28;83.30;101557.69;5143313;27;8857;-70
2022/01/27 02:32:45;;;;;;;;;62.50;52.00;;;;;-4.39;82.13;101564.56;5134334;27;8877;-69
2022/01/27 02:35:41;;;;;;;;;70.50;54.75;;;;;-4.43;82.11;101566.03;5133367;27;8953;-70
2022/01/27 02:38:37;;;;;;;;;67.50;55.25;;;;;-4.47;82.08;101562.91;5119780;27;8865;-70
2022/01/27 02:41:42;;;;;;;;;74.00;57.50;;;;;-4.39;81.80;101561.03;5133960;27;8843;-70
2022/01/27 02:44:46;;;;;;;;;56.50;50.00;;;;;-4.56;82.22;101569.56;5124561;27;8855;-70
2022/01/27 02:47:42;;;;;;;;;63.75;50.00;;;;;-4.78;81.66;101560.88;5133224;27;9588;-70
2022/01/27 02:50:38;;;;;;;;;49.25;45.75;;;;;-4.71;81.52;101570.84;5135667;27;8827;-70
2022/01/27 02:53:33;;;;;;;;;57.00;49.50;;;;;-4.63;81.68;101566.06;5119511;27;8820;-70
2022/01/27 02:56:29;;;;;;;;;64.25;51.25;;;;;-4.59;81.39;101571.88;5146156;27;8897;-72
2022/01/27 02:59:25;;;;;;;;;61.75;51.75;;;;;-4.69;82.14;101571.44;5140059;27;8853;-70
2022/01/27 03:02:22;;;;;;;;;64.50;53.50;;;;;-4.59;81.87;101578.09;5132921;27;8834;-70
2022/01/27 03:05:18;;;;;;;;;63.50;54.00;;;;;-4.64;81.55;101574.38;5132881;27;8895;-71
2022/01/27 03:08:14;;;;;;;;;65.75;53.00;;;;;-4.61;81.55;101585.56;5133187;27;8827;-69
2022/01/27 03:11:38;;;;;;;;;60.25;52.25;;;;;-4.60;80.73;101572.91;5134194;27;8819;-70
2022/01/27 03:14:35;;;;;;;;;54.75;50.00;;;;;-4.67;81.92;101577.50;5132878;27;8827;-70
2022/01/27 03:17:31;;;;;;;;;70.50;57.25;;;;;-4.63;80.97;101573.31;5138242;27;8832;-69
2022/01/27 03:20:32;;;;;;;;;62.50;51.00;;;;;-4.61;81.79;101577.47;5136934;27;8829;-70
2022/01/27 03:23:28;;;;;;;;;61.50;54.00;;;;;-4.60;81.40;101572.91;5153502;27;8855;-70
2022/01/27 03:26:24;;;;;;;;;51.00;47.50;;;;;-4.70;81.19;101583.28;5153461;27;8825;-71
2022/01/27 03:29:21;;;;;;;;;49.25;46.50;;;;;-4.57;81.12;101586.81;5138141;27;8884;-71
2022/01/27 03:32:17;;;;;;;;;57.75;51.00;;;;;-4.68;81.09;101586.59;5152786;27;8812;-71
2022/01/27 03:35:13;;;;;;;;;62.50;51.50;;;;;-4.59;81.54;101588.91;5153444;27;8809;-71
2022/01/27 03:38:09;;;;;;;;;66.75;53.75;;;;;-4.57;80.91;101602.19;5139641;27;8849;-70
2022/01/27 03:40:50;;;;;;;;;66.00;52.00;;;;;-4.63;81.49;101600.31;5153166;27;8844;-71
2022/01/27 03:43:48;;;;;;;;;64.75;53.00;;;;;-4.60;81.21;101598.06;5137419;27;9633;-71
2022/01/27 03:46:44;;;;;;;;;65.50;52.50;;;;;-4.65;81.23;101600.53;5137671;27;8827;-71
2022/01/27 03:49:40;;;;;;;;;54.75;48.00;;;;;-4.70;81.06;101603.00;5122898;27;8842;-71
2022/01/27 03:52:35;;;;;;;;;54.00;49.00;;;;;-4.58;80.99;101609.47;5136320;27;8839;-70
2022/01/27 03:55:31;;;;;;;;;69.00;50.50;;;;;-4.56;80.85;101607.38;5136684;27;8823;-71
2022/01/27 03:58:26;;;;;;;;;67.25;53.50;;;;;-4.54;79.94;101602.59;5136214;27;8945;-70
2022/01/27 04:01:22;;;;;;;;;78.25;58.00;;;;;-4.44;80.35;101606.75;5137306;27;8909;-70
2022/01/27 04:04:17;;;;;;;;;91.00;70.50;;;;;-4.41;80.92;101611.72;5122445;27;8911;-70
2022/01/27 04:07:13;;;;;;;;;94.00;70.50;;;;;-4.41;82.07;101611.72;5137196;27;8823;-71
2022/01/27 04:10:09;;;;;;;;;93.75;70.50;;;;;-4.38;81.56;101628.34;5136148;27;8839;-71
2022/01/27 04:13:06;;;;;;;;;92.00;69.75;;;;;-4.38;81.04;101612.13;5137015;27;8866;-71
2022/01/27 04:16:02;;;;;;;;;97.25;72.75;;;;;-4.35;81.67;101625.22;5140765;27;8831;-70
2022/01/27 04:18:58;;;;;;;;;88.25;67.25;;;;;-4.30;81.31;101620.00;5154983;27;8832;-71
2022/01/27 04:21:53;;;;;;;;;90.75;72.00;;;;;-4.42;80.44;101624.41;5143676;27;8861;-71
2022/01/27 04:24:49;;;;;;;;;96.50;72.25;;;;;-4.31;80.29;101614.81;5121946;27;8834;-71
2022/01/27 04:27:49;;;;;;;;;101.00;74.25;;;;;-4.39;80.28;101623.16;5135610;27;8847;-71
2022/01/27 04:30:46;;;;;;;;;88.50;65.75;;;;;-4.59;80.65;101618.59;5140002;27;8851;-71
2022/01/27 04:33:41;;;;;;;;;113.25;80.25;;;;;-4.65;79.99;101621.28;5156416;27;8856;-70
2022/01/27 04:36:38;;;;;;;;;100.50;75.25;;;;;-4.59;80.42;101631.28;5156283;27;8863;-70
2022/01/27 04:39:42;;;;;;;;;96.50;71.00;;;;;-4.57;80.89;101629.19;5142043;27;8817;-71
2022/01/27 04:48:58;;;;;;;;;116.00;88.75;;;;;-4.50;81.13;101638.13;5136162;27;8886;-71
2022/01/27 04:51:54;;;;;;;;;116.00;96.25;;;;;-4.62;80.89;101643.28;5135185;27;8926;-71
2022/01/27 04:55:03;;;;;;;;;99.50;72.50;;;;;-4.68;81.26;101643.28;5135821;27;8831;-70
2022/01/27 04:58:09;;;;;;;;;81.50;66.00;;;;;-4.70;81.51;101643.50;5138898;27;9628;-70
2022/01/27 05:01:05;;;;;;;;;87.50;66.00;;;;;-4.76;81.17;101642.44;5144251;27;9002;-69
2022/01/27 05:04:10;;;;;;;;;67.50;56.50;;;;;-4.79;81.03;101645.56;5135199;27;8831;-70
2022/01/27 05:07:06;;;;;;;;;66.00;55.00;;;;;-4.87;81.26;101645.78;5121363;27;8873;-70
2022/01/27 05:10:10;;;;;;;;;70.50;57.50;;;;;-4.80;81.65;101646.63;5123167;27;8888;-70
2022/01/27 05:13:17;;;;;;;;;74.75;62.00;;;;;-4.88;82.58;101649.50;5135086;27;8851;-70
2022/01/27 05:16:12;;;;;;;;;63.00;55.00;;;;;-4.92;82.13;101661.75;5135995;27;8942;-70
2022/01/27 05:19:08;;;;;;;;;74.25;61.50;;;;;-4.80;81.93;101664.69;5147950;27;8809;-70
2022/01/27 05:22:04;;;;;;;;;70.75;60.25;;;;;-4.68;81.37;101670.28;5155739;27;8849;-70
2022/01/27 05:24:59;;;;;;;;;76.75;60.25;;;;;-4.84;81.69;101666.94;5155190;27;8849;-70
2022/01/27 05:27:55;;;;;;;;;72.75;54.50;;;;;-4.82;81.37;101664.91;5155401;27;9720;-70
2022/01/27 05:30:50;;;;;;;;;75.75;61.50;;;;;-4.66;81.89;101673.63;5147380;27;8831;-70
2022/01/27 05:33:46;;;;;;;;;74.50;60.25;;;;;-4.71;82.11;101673.41;5140584;27;8852;-70
2022/01/27 05:36:42;;;;;;;;;75.00;60.75;;;;;-4.70;81.95;101675.91;5134854;27;8854;-70
2022/01/27 05:39:37;;;;;;;;;75.50;59.75;;;;;-4.76;81.86;101674.84;5134383;27;8815;-71
2022/01/27 05:42:33;;;;;;;;;68.50;54.50;;;;;-4.74;81.23;101688.16;5152317;27;8829;-69
2022/01/27 05:45:29;;;;;;;;;74.00;60.75;;;;;-4.76;81.97;101685.63;5146748;27;9546;-68
2022/01/27 05:48:25;;;;;;;;;70.00;56.00;;;;;-4.67;81.13;101683.59;5143652;27;9566;-67
2022/01/27 05:51:21;;;;;;;;;62.50;52.75;;;;;-4.72;81.05;101693.34;5142302;27;8836;-69
2022/01/27 05:54:17;;;;;;;;;75.25;62.50;;;;;-4.65;80.67;101696.88;5142120;27;8823;-67
2022/01/27 05:57:13;;;;;;;;;75.50;63.00;;;;;-4.68;80.78;101698.09;5130114;27;8829;-67
2022/01/27 06:00:10;;;;;;;;;76.75;59.50;;;;;-4.58;80.54;101695.03;5138153;27;8875;-68
2022/01/27 06:03:06;;;;;;;;;70.50;60.75;;;;;-4.60;81.26;101695.25;5142917;27;8875;-68
2022/01/27 06:06:02;;;;;;;;;86.50;65.50;;;;;-4.50;81.10;101692.94;5128323;27;8843;-68
2022/01/27 06:08:57;;;;;;;;;88.00;67.50;;;;;-4.63;80.51;101692.94;5142209;27;8847;-69
2022/01/27 06:11:53;;;;;;;;;81.50;65.50;;;;;-4.58;80.25;101695.03;5141169;27;9591;-67
2022/01/27 06:14:49;;;;;;;;;88.00;68.50;;;;;-4.47;81.27;101694.41;5140465;27;8870;-67
2022/01/27 06:17:45;;;;;;;;;87.00;69.75;;;;;-4.35;80.95;101690.06;5137442;27;8883;-69
2022/01/27 06:20:45;;;;;;;;;66.75;57.50;;;;;-4.36;80.18;101696.50;5126553;27;8825;-68
2022/01/27 06:23:40;;;;;;;;;74.00;62.75;;;;;-4.30;80.61;101701.03;5129759;27;8820;-68
2022/01/27 06:26:43;;;;;;;;;93.50;74.50;;;;;-4.30;79.63;101698.34;5128158;27;8845;-69
2022/01/27 06:29:39;;;;;;;;;80.75;65.00;;;;;-4.32;79.26;101702.28;5140703;27;8818;-68
2022/01/27 06:32:35;;;;;;;;;78.25;60.50;;;;;-4.20;78.48;101701.47;5139742;27;8880;-68
2022/01/27 06:35:31;;;;;;;;;70.25;52.75;;;;;-4.24;78.08;101705.63;5143080;27;8825;-68
2022/01/27 06:38:27;;;;;;;;;79.50;62.75;;;;;-4.25;77.93;101713.94;5140221;27;8839;-67
2022/01/27 06:41:22;;;;;;;;;83.25;65.75;;;;;-4.09;77.76;101707.28;5141741;27;9501;-68
2022/01/27 06:44:18;;;;;;;;;88.75;69.75;;;;;-4.28;78.18;101701.69;5118848;27;8880;-68
2022/01/27 06:47:14;;;;;;;;;66.00;51.00;;;;;-4.11;77.65;101701.25;5133261;27;8835;-69
2022/01/27 06:50:09;;;;;;;;;93.25;71.25;;;;;-4.17;77.86;101697.50;5133013;27;8839;-68
2022/01/27 06:52:38;;;;;;;;;96.75;74.50;;;;;-4.12;78.12;101702.31;5132923;27;8823;-68
2022/01/27 06:55:06;;;;;;;;;95.00;72.75;;;;;-3.95;78.03;101704.34;5133827;27;8869;-68
2022/01/27 06:57:36;;;;;;;;;91.00;69.50;;;;;-3.97;76.96;101701.03;5115960;27;8859;-68
2022/01/27 07:00:06;;;;;;;;;92.25;69.50;;;;;-3.90;76.82;101709.16;5116153;27;9019;-68
2022/01/27 07:02:35;;;;;;;;;79.50;59.50;;;;;-3.82;77.27;101708.91;5116106;27;8851;-68
2022/01/27 07:05:04;;;;;;;;;84.50;66.75;;;;;-3.72;76.27;101712.00;5133970;27;8877;-70
2022/01/27 07:07:32;;;;;;;;;79.25;63.75;;;;;-3.70;76.40;101706.38;5133742;27;8835;-69
2022/01/27 07:10:00;;;;;;;;;86.00;63.50;;;;;-3.76;75.30;101707.22;5133778;27;8865;-67
2022/01/27 07:12:27;;;;;;;;;81.25;64.75;;;;;-3.79;75.45;101707.66;5133921;27;8876;-67
2022/01/27 07:14:56;;;;;;;;;76.50;59.75;;;;;-3.70;76.55;101698.28;5133387;27;9042;-68
2022/01/27 07:17:24;;;;;;;;;87.75;66.25;;;;;-3.65;75.82;101702.00;5136536;27;8820;-68
2022/01/27 07:19:52;;;;;;;;;83.50;64.25;;;;;-3.71;75.81;101705.56;5120218;27;8907;-68
2022/01/27 07:22:20;;;;;;;;;94.25;72.25;;;;;-3.56;74.98;101696.38;5137853;27;8843;-68
2022/01/27 07:24:47;;;;;;;;;83.50;65.75;;;;;-3.67;75.87;101697.88;5119816;27;9583;-68
2022/01/27 07:27:17;;;;;;;;;81.75;64.50;;;;;-3.57;76.19;101697.41;5136971;27;8930;-68
2022/01/27 07:29:45;;;;;;;;;92.25;68.75;;;;;-3.45;76.06;101696.56;5136956;27;8823;-68
2022/01/27 07:32:13;;;;;;;;;92.50;70.00;;;;;-3.37;75.39;101709.00;5138084;27;8835;-68
2022/01/27 07:34:47;;;;;;;;;89.00;67.50;;;;;-3.40;74.55;101714.81;5136638;27;8835;-68
2022/01/27 07:37:16;;;;;;;;;85.00;69.25;;;;;-3.44;74.82;101694.69;5137916;27;8929;-68
2022/01/27 07:39:44;;;;;;;;;79.50;64.50;;;;;-3.20;74.16;101695.81;5137736;27;8837;-68
2022/01/27 07:42:12;;;;;;;;;96.25;73.75;;;;;-3.20;74.57;101702.06;5137562;27;8833;-68
2022/01/27 07:44:40;;;;;;;;;96.50;73.25;;;;;-3.22;74.80;101697.88;5137637;27;8820;-68
2022/01/27 07:47:07;;;;;;;;;99.25;76.75;;;;;-3.17;74.06;101696.22;5137591;27;8846;-68
2022/01/27 07:49:36;;;;;;;;;116.00;83.50;;;;;-3.28;73.89;101699.59;5137554;27;8971;-68
2022/01/27 07:52:04;;;;;;;;;83.50;57.75;;;;;-3.11;73.82;101700.75;5137523;27;8851;-68
2022/01/27 07:54:32;;;;;;;;;108.00;81.50;;;;;-3.10;72.32;101702.41;5137415;27;8854;-68
2022/01/27 07:57:00;;;;;;;;;113.00;85.75;;;;;-2.96;72.64;101699.66;5137423;27;8923;-67
2022/01/27 07:59:30;;;;;;;;;114.00;89.25;;;;;-2.88;72.85;101702.09;5136211;27;9015;-70
2022/01/27 08:02:04;;;;;;;;;107.00;77.00;;;;;-2.98;71.90;101702.59;5137436;27;8855;-67
2022/01/27 08:04:32;;;;;;;;;144.00;113.75;;;;;-2.76;73.57;101702.22;5137301;27;8927;-68
2022/01/27 08:07:02;;;;;;;;;114.25;104.25;;;;;-2.62;73.71;101696.50;5119160;27;8871;-67
2022/01/27 08:09:31;;;;;;;;;124.75;101.50;;;;;-2.40;72.50;101701.56;5136872;27;8812;-67
2022/01/27 08:11:59;;;;;;;;;115.25;98.50;;;;;-2.54;71.22;101706.25;5136738;27;8835;-68
2022/01/27 08:14:40;;;;;;;;;64.75;42.25;;;;;-2.54;70.05;101709.78;5136951;27;8853;-67
2022/01/27 08:17:08;;;;;;;;;146.25;112.50;;;;;-2.28;72.55;101707.94;5137186;27;8898;-69
2022/01/27 08:19:35;;;;;;;;;154.75;127.50;;;;;-2.02;72.49;101715.00;5123169;27;8862;-69
2022/01/27 08:22:32;;;;;;;;;156.00;123.00;;;;;-2.24;70.10;101722.69;5137898;27;8859;-69
2022/01/27 08:25:27;;;;;;;;;135.25;105.50;;;;;-2.13;70.64;101722.00;5128790;27;9602;-69
2022/01/27 08:28:30;;;;;;;;;118.25;99.50;;;;;-1.94;71.12;101722.03;5151765;27;8828;-70
2022/01/27 08:31:33;;;;;;;;;111.75;97.50;;;;;-1.80;70.88;101726.28;5139963;27;8865;-71
2022/01/27 08:34:35;;;;;;;;;102.75;82.00;;;;;-1.81;70.21;101732.75;5143383;27;9065;-70
2022/01/27 08:37:30;;;;;;;;;109.50;81.75;;;;;-1.90;69.64;101734.94;5135364;27;8855;-70
2022/01/27 08:40:26;;;;;;;;;114.00;98.75;;;;;-1.62;69.12;101734.44;5144140;27;8957;-70
2022/01/27 08:43:22;;;;;;;;;113.00;91.75;;;;;-1.77;68.97;101720.41;5134842;27;8819;-70
2022/01/27 08:46:17;;;;;;;;;107.00;76.75;;;;;-1.74;69.70;101722.69;5139926;27;8848;-70
2022/01/27 08:49:14;;;;;;;;;99.00;75.25;;;;;-1.95;67.77;101715.78;5154935;27;8825;-70
2022/01/27 08:52:09;;;;;;;;;116.00;97.50;;;;;-1.99;68.51;101709.16;5144383;27;8850;-70
2022/01/27 08:55:07;;;;;;;;;96.50;74.00;;;;;-1.89;69.55;101704.06;5134543;27;8831;-70
2022/01/27 08:58:03;;;;;;;;;115.50;99.75;;;;;-1.82;69.15;101706.69;5130958;27;9556;-70
2022/01/27 09:01:01;;;;;;;;;107.00;79.75;;;;;-1.79;68.24;101706.25;5136170;27;9958;-69
2022/01/27 09:03:56;;;;;;;;;91.00;72.00;;;;;-1.73;67.86;101710.78;5137713;27;8881;-70
2022/01/27 09:06:52;;;;;;;;;100.25;75.25;;;;;-1.71;67.97;101708.66;5134116;27;9619;-69
2022/01/27 09:09:47;;;;;;;;;93.50;72.75;;;;;-1.71;67.30;101704.06;5150322;27;8853;-69
2022/01/27 09:12:44;;;;;;;;;115.25;87.25;;;;;-1.51;67.55;101698.44;5145862;27;8815;-68
2022/01/27 09:15:39;;;;;;;;;110.25;91.25;;;;;-1.55;67.32;101699.09;5148053;27;8954;-68
2022/01/27 09:18:37;;;;;;;;;115.75;81.00;;;;;-1.33;68.88;101697.59;5134491;27;8994;-68
2022/01/27 09:21:54;;;;;;;;;109.50;87.25;;;;;-1.59;67.56;101706.88;5133792;27;8839;-67
2022/01/27 09:27:46;;;;;;;;;106.25;80.75;;;;;-1.23;68.64;101716.03;5136511;27;8853;-68
2022/01/27 09:30:44;;;;;;;;;108.00;86.00;;;;;-1.22;67.57;101715.00;5136115;27;8827;-67
2022/01/27 09:33:40;;;;;;;;;108.50;81.25;;;;;-1.29;68.09;101716.97;5141191;27;8841;-68
2022/01/27 09:36:11;;;;;;;;;105.00;85.25;;;;;-1.20;67.53;101711.00;5134929;27;8837;-68
2022/01/27 09:39:08;;;;;;;;;100.00;78.00;;;;;-1.07;68.15;101701.88;5129408;27;8828;-70
2022/01/27 09:42:06;;;;;;;;;107.75;83.00;;;;;-1.02;66.94;101701.16;5133997;27;8842;-69
2022/01/27 09:45:05;;;;;;;;;103.50;83.00;;;;;-1.30;67.34;101699.88;5134346;27;8827;-70
2022/01/27 09:48:11;;;;;;;;;107.25;84.75;;;;;-1.62;68.60;101693.75;5134123;27;8823;-68
2022/01/27 09:54:16;;;;;;;;;106.25;75.75;;;;;-1.33;69.51;101697.59;5135071;27;8831;-70
2022/01/27 09:57:17;;;;;;;;;102.25;77.25;;;;;-1.36;68.37;101703.50;5119788;27;8854;-69
2022/01/27 10:00:14;;;;;;;;;72.00;58.75;;;;;-1.42;68.13;101707.09;5144398;27;8821;-70
2022/01/27 10:03:14;;;;;;;;;110.50;83.00;;;;;-1.21;68.79;101703.94;5132859;27;8858;-69
2022/01/27 10:06:16;;;;;;;;;114.25;89.75;;;;;-1.13;68.10;101711.75;5140780;27;8855;-68
2022/01/27 10:09:19;;;;;;;;;106.75;87.75;;;;;-1.21;69.12;101705.81;5154247;27;8813;-68
2022/01/27 10:12:15;;;;;;;;;97.75;77.75;;;;;-1.25;68.58;101710.03;5150767;27;8807;-69
2022/01/27 10:15:17;;;;;;;;;106.00;82.75;;;;;-1.24;68.09;101700.81;5151309;27;8876;-69
2022/01/27 10:18:15;;;;;;;;;100.50;78.50;;;;;-1.17;68.78;101709.72;5140200;27;8837;-69
2022/01/27 10:21:12;;;;;;;;;108.25;86.75;;;;;-1.38;69.03;101707.47;5140381;27;8997;-69
2022/01/27 10:24:25;;;;;;;;;99.00;78.25;;;;;-1.28;69.40;101699.63;5118838;27;8869;-69
2022/01/27 10:33:21;;;;;;;;;104.75;78.25;;;;;-1.24;70.07;101696.22;5139134;27;8835;-69
2022/01/27 10:36:24;;;;;;;;;84.25;67.25;;;;;-1.06;69.41;101698.09;5151416;27;8867;-70
2022/01/27 10:39:21;;;;;;;;;88.00;72.00;;;;;-1.32;69.95;101690.28;5123367;27;8851;-69
2022/01/27 10:42:21;;;;;;;;;71.00;57.33;;;;;-1.22;70.07;101688.69;5124658;27;8847;-69
2022/01/27 10:45:17;;;;;;;;;62.67;52.00;;;;;-1.21;69.79;101689.53;5136860;27;8995;-69
2022/01/27 10:48:22;;;;;;;;;71.67;58.00;;;;;-1.20;69.04;101683.88;5139021;27;8817;-68
2022/01/27 10:51:24;;;;;;;;;76.67;63.67;;;;;-1.04;69.95;101681.56;5130618;27;8835;-69
2022/01/27 10:54:36;;;;;;;;;66.67;54.67;;;;;-1.22;69.83;101685.97;5133409;27;8951;-67
2022/01/27 10:57:32;;;;;;;;;75.00;62.33;;;;;-1.23;70.69;101676.16;5143052;27;9546;-68
2022/01/27 11:00:31;;;;;;;;;87.33;63.00;;;;;-1.02;72.13;101683.00;5142849;27;8798;-66
2022/01/27 11:03:28;;;;;;;;;19.00;13.67;;;;;-0.92;70.80;101687.84;5132671;27;9025;-67
2022/01/27 11:06:25;;;;;;;;;78.67;62.33;;;;;-0.83;70.24;101691.09;5140736;27;8821;-67
2022/01/27 11:09:22;;;;;;;;;75.00;62.75;;;;;-0.78;70.21;101677.66;5139323;27;8941;-67
2022/01/27 11:11:52;;;;;;;;;83.67;66.00;;;;;-1.06;69.09;101687.25;5125799;27;8840;-66
2022/01/27 11:14:23;;;;;;;;;68.67;56.33;;;;;-1.17;69.45;101693.44;5142999;27;9592;-67
2022/01/27 11:17:20;;;;;;;;;80.00;65.00;;;;;-1.32;70.55;101688.38;5127795;27;8825;-67
2022/01/27 11:20:34;;;;;;;;;87.00;65.75;;;;;-1.18;69.78;101687.16;5129709;27;8821;-67
2022/01/27 11:26:40;;;;;;;;;81.50;65.00;;;;;-1.28;70.68;101678.75;5142465;27;8915;-68
2022/01/27 11:29:10;;;;;;;;;89.75;69.25;;;;;-1.02;70.59;101674.00;5141064;27;8874;-66
2022/01/27 11:32:21;;;;;;;;;74.75;57.50;;;;;-0.87;68.82;101672.53;5137111;27;8873;-68
2022/01/27 11:35:16;;;;;;;;;78.75;63.50;;;;;-1.02;71.61;101669.41;5123942;27;8839;-69
2022/01/27 11:38:12;;;;;;;;;85.50;66.00;;;;;-1.00;69.55;101670.00;5132285;27;8923;-69
2022/01/27 11:41:44;;;;;;;;;81.75;66.00;;;;;-0.97;71.12;101672.28;5139076;27;8819;-67
2022/01/27 11:44:43;;;;;;;;;73.67;61.67;;;;;-0.80;70.25;101655.31;5125875;27;8819;-68
2022/01/27 11:48:01;;;;;;;;;74.75;61.00;;;;;-0.91;69.43;101652.34;5143528;27;8846;-68
2022/01/27 11:51:06;;;;;;;;;77.00;60.75;;;;;-0.96;70.34;101654.91;5134310;27;8907;-69
2022/01/27 11:54:27;;;;;;;;;80.67;61.00;;;;;-0.92;71.14;101642.56;5118677;27;8827;-68
2022/01/27 11:57:40;;;;;;;;;73.33;59.33;;;;;-0.90;70.34;101650.47;5136499;27;8845;-68
2022/01/27 12:00:37;;;;;;;;;79.67;62.33;;;;;-0.86;71.17;101640.78;5144325;27;8825;-69
2022/01/27 12:03:34;;;;;;;;;70.67;59.67;;;;;-0.95;71.16;101648.44;5156208;27;8847;-67
2022/01/27 12:06:33;;;;;;;;;81.67;64.67;;;;;-1.08;71.15;101650.50;5156869;27;8855;-67
2022/01/27 12:09:31;;;;;;;;;84.00;66.25;;;;;-1.02;72.48;101661.25;5141125;27;8840;-67
2022/01/27 12:12:30;;;;;;;;;69.00;58.33;;;;;-0.94;71.47;101652.78;5153279;27;8859;-66
2022/01/27 12:15:26;;;;;;;;;70.00;58.33;;;;;-0.87;70.76;101658.97;5153775;27;8841;-66
2022/01/27 12:18:38;;;;;;;;;78.75;65.00;;;;;-1.06;71.73;101651.13;5133299;27;8827;-66
2022/01/27 12:21:51;;;;;;;;;79.00;59.33;;;;;-0.97;73.00;101652.44;5137037;27;8831;-67
2022/01/27 12:25:00;;;;;;;;;66.33;52.00;;;;;-0.88;72.26;101646.44;5136412;27;8850;-67
2022/01/27 12:27:58;;;;;;;;;82.33;63.67;;;;;-0.89;72.47;101650.22;5140591;27;8971;-67
2022/01/27 12:30:57;;;;;;;;;77.00;60.67;;;;;-0.72;71.25;101653.09;5157311;27;9578;-67
2022/01/27 12:33:25;;;;;;;;;73.33;58.33;;;;;-0.62;71.80;101652.53;5135232;27;8862;-67
2022/01/27 12:35:54;;;;;;;;;71.33;57.67;;;;;-0.60;70.67;101650.44;5138770;27;8865;-67
2022/01/27 12:38:49;;;;;;;;;63.33;54.33;;;;;-0.75;71.36;101653.56;5144664;27;8865;-67
2022/01/27 12:41:17;;;;;;;;;60.67;51.33;;;;;-0.45;71.29;101658.97;5144323;27;8839;-67
2022/01/27 12:43:46;;;;;;;;;59.67;49.00;;;;;-0.42;69.63;101650.31;5145758;27;8872;-67
2022/01/27 12:46:19;;;;;;;;;69.67;55.67;;;;;-0.36;69.10;101651.28;5146059;27;9558;-66
2022/01/27 12:49:36;;;;;;;;;75.33;60.33;;;;;-0.39;70.63;101657.19;5145090;27;8845;-66
2022/01/27 12:52:39;;;;;;;;;39.67;35.67;;;;;-0.57;68.37;101652.66;5143414;27;8836;-69
2022/01/27 12:55:38;;;;;;;;;61.00;51.67;;;;;-0.44;68.73;101648.91;5131335;27;8828;-68
2022/01/27 12:58:33;;;;;;;;;58.00;49.33;;;;;-0.55;68.66;101653.25;5145507;27;8821;-68
2022/01/27 13:01:33;;;;;;;;;65.67;53.33;;;;;-0.22;68.18;101649.19;5142637;27;8948;-68
2022/01/27 13:04:29;;;;;;;;;54.00;45.00;;;;;-0.26;65.96;101648.81;5141785;27;8906;-68
2022/01/27 13:06:59;;;;;;;;;40.67;38.67;;;;;-0.17;66.02;101654.72;5146110;27;8847;-69
2022/01/27 13:10:03;;;;;;;;;40.67;39.00;;;;;-0.22;67.75;101660.06;5131221;27;8851;-68
2022/01/27 13:13:12;;;;;;;;;50.00;43.00;;;;;-0.35;66.19;101658.38;5131279;27;8807;-68
2022/01/27 13:16:17;;;;;;;;;65.33;54.00;;;;;-0.58;66.84;101661.88;5144834;27;9533;-68
2022/01/27 13:19:18;;;;;;;;;44.67;41.33;;;;;-0.56;66.67;101654.31;5132879;27;8897;-68
2022/01/27 13:22:25;;;;;;;;;44.33;44.33;;;;;-0.27;67.15;101658.03;5132946;27;9076;-67
2022/01/27 13:25:23;;;;;;;;;50.33;45.00;;;;;-0.23;64.99;101671.97;5128246;27;9553;-67
2022/01/27 13:28:23;;;;;;;;;46.00;40.33;;;;;-0.44;65.35;101666.06;5142132;27;8829;-68
2022/01/27 13:31:19;;;;;;;;;28.00;28.00;;;;;-0.49;65.27;101665.91;5130494;27;8860;-68
2022/01/27 13:34:15;;;;;;;;;36.67;36.00;;;;;-0.78;66.20;101664.88;5130848;27;8829;-68
2022/01/27 13:37:27;;;;;;;;;40.33;39.00;;;;;-0.86;65.76;101671.47;5146046;27;8837;-67
2022/01/27 13:43:52;;;;;;;;;33.33;30.33;;;;;-1.06;65.86;101645.69;5143057;27;8964;-67
2022/01/27 13:46:53;;;;;;;;;28.67;27.67;;;;;-0.96;66.18;101648.66;5143318;27;8853;-66
2022/01/27 13:49:54;;;;;;;;;41.33;38.67;;;;;-1.06;66.45;101651.13;5133108;27;8821;-67
2022/01/27 13:52:51;;;;;;;;;48.33;45.33;;;;;-1.29;67.49;101651.84;5142513;27;8847;-67
2022/01/27 13:56:02;;;;;;;;;46.00;42.33;;;;;-1.38;68.65;101653.19;5129793;27;8825;-66
2022/01/27 13:59:10;;;;;;;;;43.67;42.33;;;;;-1.42;69.21;101650.94;5128206;27;8948;-65
2022/01/27 14:02:16;;;;;;;;;50.33;46.33;;;;;-1.29;69.16;101643.69;5136525;27;8797;-67
2022/01/27 14:05:13;;;;;;;;;42.67;38.67;;;;;-1.24;68.53;101650.06;5141039;27;8833;-67
2022/01/27 14:07:52;;;;;;;;;43.33;39.00;;;;;-1.27;68.62;101647.00;5144884;27;8860;-68
2022/01/27 14:10:37;;;;;;;;;50.33;45.33;;;;;-1.56;69.55;101656.75;5141533;27;8828;-69